createdAt,value
2019-06-07T00:00:38.341Z,99.90
2019-06-07T00:02:58.641Z,99.90
2019-06-07T00:05:30.607Z,99.90
2019-06-07T00:08:07.668Z,99.90
2019-06-07T00:10:37.120Z,99.90
2019-06-07T00:13:09.742Z,99.90
2019-06-07T00:15:41.044Z,99.90
2019-06-07T00:18:15.065Z,99.90
2019-06-07T00:20:46.234Z,99.90
2019-06-07T00:23:20.718Z,99.90
2019-06-07T00:25:51.826Z,99.90
2019-06-07T00:28:22.647Z,99.90
2019-06-07T00:30:54.751Z,99.90
2019-06-07T00:33:26.610Z,99.90
2019-06-07T00:35:57.676Z,99.90
2019-06-07T00:38:29.084Z,99.90
2019-06-07T00:41:00.139Z,99.90
2019-06-07T00:43:31.576Z,99.90
2019-06-07T00:46:03.273Z,99.90
2019-06-07T00:48:34.419Z,99.90
2019-06-07T00:51:06.557Z,99.90
2019-06-07T00:53:38.093Z,99.90
2019-06-07T00:56:09.548Z,99.90
2019-06-07T00:58:40.869Z,99.90
2019-06-07T02:02:53.589Z,99.90
2019-06-07T02:05:28.440Z,99.90
2019-06-07T02:08:03.699Z,99.90
2019-06-07T02:10:35.046Z,99.90
2019-06-07T02:13:06.014Z,99.90
2019-06-07T02:15:37.279Z,99.90
2019-06-07T02:18:08.430Z,99.90
2019-06-07T02:20:40.724Z,99.90
2019-06-07T02:23:12.199Z,99.90
2019-06-07T02:25:49.965Z,99.90
2019-06-07T02:28:38.436Z,99.90
2019-06-07T02:30:59.519Z,99.90
2019-06-07T02:33:27.904Z,99.90
2019-06-07T02:35:56.335Z,99.90
2019-06-07T02:38:31.111Z,99.90
2019-06-07T02:41:00.333Z,99.90
2019-06-07T02:43:36.273Z,99.90
2019-06-07T02:46:25.154Z,99.90
2019-06-07T02:48:40.363Z,99.90
2019-06-07T02:51:11.844Z,99.90
2019-06-07T02:53:43.599Z,99.90
2019-06-07T02:58:47.863Z,99.90
2019-06-07T03:01:18.974Z,99.90
2019-06-07T03:03:51.256Z,99.90
2019-06-07T03:06:23.467Z,99.90
2019-06-07T03:08:55.497Z,99.90
2019-06-07T03:11:31.642Z,99.90
2019-06-07T03:14:03.957Z,99.90
2019-06-07T03:16:41.123Z,99.90
2019-06-07T03:19:16.739Z,99.90
2019-06-07T03:21:49.593Z,99.90
2019-06-07T03:24:24.233Z,99.90
2019-06-07T03:29:31.628Z,99.90
2019-06-07T03:32:03.287Z,99.90
2019-06-07T03:34:41.030Z,99.90
2019-06-07T03:37:07.596Z,99.90
2019-06-07T03:39:41.182Z,99.90
2019-06-07T03:42:12.472Z,99.90
2019-06-07T03:44:43.444Z,99.90
2019-06-07T03:47:14.633Z,99.90
2019-06-07T03:49:47.763Z,99.90
2019-06-07T03:52:19.423Z,99.90
2019-06-07T03:54:50.885Z,99.90
2019-06-07T03:57:22.140Z,99.90
2019-06-07T03:59:53.085Z,99.90
2019-06-07T04:02:23.994Z,99.90
2019-06-07T04:04:55.487Z,99.90
2019-06-07T04:07:28.993Z,99.90
2019-06-07T04:10:00.130Z,99.90
2019-06-07T04:12:35.549Z,99.90
2019-06-07T04:15:04.572Z,99.90
2019-06-07T04:17:39.138Z,99.90
2019-06-07T04:20:09.541Z,99.90
2019-06-07T04:22:42.736Z,99.90
2019-06-07T04:25:13.783Z,99.90
2019-06-07T04:27:44.642Z,99.90
2019-06-07T04:30:20.080Z,99.90
2019-06-07T04:32:50.998Z,99.90
2019-06-07T04:35:22.839Z,99.90
2019-06-07T04:37:55.191Z,99.90
2019-06-07T04:40:27.845Z,99.90
2019-06-07T04:43:01.406Z,99.90
2019-06-07T04:45:41.714Z,99.90
2019-06-07T04:48:08.698Z,99.90
2019-06-07T04:50:43.442Z,99.90
2019-06-07T04:53:12.683Z,99.90
2019-06-07T04:55:44.361Z,99.90
2019-06-07T04:58:15.803Z,99.90
2019-06-07T05:00:53.213Z,99.90
2019-06-07T05:03:22.316Z,99.90
2019-06-07T05:05:53.584Z,99.90
2019-06-07T05:08:28.345Z,99.90
2019-06-07T05:10:58.286Z,99.90
2019-06-07T05:13:31.416Z,99.90
2019-06-07T05:16:05.928Z,99.90
2019-06-07T05:18:41.132Z,99.90
2019-06-07T05:21:09.964Z,99.90
2019-06-07T05:24:05.379Z,99.90
2019-06-07T05:26:14.010Z,99.90
2019-06-07T05:28:45.843Z,99.90
2019-06-07T05:31:17.714Z,99.90
2019-06-07T05:33:49.003Z,99.90
2019-06-07T05:36:21.513Z,99.90
2019-06-07T05:38:52.490Z,99.90
2019-06-07T05:41:23.586Z,99.90
2019-06-07T05:44:12.250Z,99.90
2019-06-07T05:46:27.895Z,99.90
2019-06-07T05:48:59.426Z,99.90
2019-06-07T05:51:32.198Z,99.90
2019-06-07T05:54:03.546Z,99.90
2019-06-07T05:56:35.914Z,99.90
2019-06-07T05:59:08.131Z,99.90
2019-06-07T06:01:53.164Z,99.90
2019-06-07T06:04:27.723Z,99.90
2019-06-07T06:06:58.831Z,99.90
2019-06-07T06:09:29.911Z,99.90
2019-06-07T06:12:34.139Z,99.90
2019-06-07T06:15:13.304Z,99.90
2019-06-07T06:17:58.352Z,99.90
2019-06-07T06:21:24.268Z,99.90
2019-06-07T06:28:02.825Z,99.90
2019-06-07T06:30:01.132Z,99.90
2019-06-07T06:32:54.977Z,99.90
2019-06-07T06:35:34.535Z,99.90
2019-06-07T06:38:23.408Z,99.90
2019-06-07T06:41:27.169Z,99.90
2019-06-07T06:44:17.696Z,99.90
2019-06-07T06:47:14.338Z,99.90
2019-06-07T06:50:21.867Z,99.90
2019-06-07T06:53:03.762Z,99.90
2019-06-07T07:02:03.994Z,99.90
2019-06-07T07:07:56.487Z,99.90
2019-06-07T07:10:58.153Z,99.90
2019-06-07T07:13:39.397Z,99.90
2019-06-07T07:16:31.465Z,99.90
2019-06-07T07:19:30.865Z,99.90
2019-06-07T07:22:02.483Z,99.90
2019-06-07T07:24:34.566Z,99.90
2019-06-07T07:27:06.379Z,99.90
2019-06-07T07:29:37.291Z,99.90
2019-06-07T07:32:08.330Z,99.90
2019-06-07T07:34:38.851Z,99.90
2019-06-07T07:37:09.739Z,99.90
2019-06-07T07:39:40.986Z,99.90
2019-06-07T07:42:20.925Z,99.90
2019-06-07T07:44:45.028Z,99.90
2019-06-07T07:47:16.903Z,99.90
2019-06-07T07:49:52.206Z,99.90
2019-06-07T07:52:20.677Z,99.90
2019-06-07T07:54:52.858Z,99.90
2019-06-07T07:57:24.375Z,99.90
2019-06-07T08:00:15.752Z,99.90
2019-06-07T08:02:28.995Z,99.90
2019-06-07T08:05:21.813Z,99.90
2019-06-07T08:07:34.285Z,99.90
2019-06-07T08:10:05.983Z,99.90
2019-06-07T08:12:55.446Z,99.90
2019-06-07T08:15:11.596Z,99.90
2019-06-07T08:17:42.892Z,99.90
2019-06-07T08:20:14.119Z,99.90
2019-06-07T08:22:45.541Z,99.90
2019-06-07T08:25:18.443Z,99.90
2019-06-07T08:27:49.552Z,99.90
2019-06-07T08:32:58.794Z,99.90
2019-06-07T08:38:26.671Z,99.90
2019-06-07T08:40:33.548Z,99.90
2019-06-07T08:43:18.235Z,99.90
2019-06-07T08:45:38.896Z,99.90
2019-06-07T08:48:27.060Z,99.90
2019-06-07T08:50:42.984Z,99.90
2019-06-07T08:53:14.773Z,99.90
2019-06-07T08:55:46.555Z,99.90
2019-06-07T08:58:17.734Z,99.90
2019-06-07T09:00:49.228Z,99.90
2019-06-07T09:03:20.264Z,99.90
2019-06-07T09:05:54.198Z,99.90
2019-06-07T09:08:30.364Z,99.90
2019-06-07T09:10:59.575Z,99.90
2019-06-07T09:13:31.129Z,99.90
2019-06-07T09:16:06.757Z,99.90
2019-06-07T09:18:42.944Z,99.90
2019-06-07T09:21:09.750Z,99.90
2019-06-07T09:23:41.355Z,99.90
2019-06-07T09:26:18.112Z,99.90
2019-06-07T09:28:46.142Z,99.90
2019-06-07T09:31:18.870Z,99.90
2019-06-07T09:33:50.057Z,99.90
2019-06-07T09:36:21.407Z,99.90
2019-06-07T09:38:53.140Z,99.90
2019-06-07T09:41:46.419Z,99.90
2019-06-07T09:44:18.352Z,99.90
2019-06-07T09:46:30.886Z,99.90
2019-06-07T09:49:32.869Z,99.90
2019-06-07T09:52:06.824Z,99.90
2019-06-07T09:57:15.739Z,99.90
2019-06-07T09:59:39.987Z,99.90
2019-06-07T10:02:13.705Z,99.90
2019-06-07T10:04:44.679Z,99.90
2019-06-07T10:07:30.855Z,99.90
2019-06-07T10:12:21.698Z,99.90
2019-06-07T10:14:53.482Z,99.90
2019-06-07T10:17:24.790Z,99.90
2019-06-07T10:19:56.038Z,99.90
2019-06-07T10:22:27.440Z,99.90
2019-06-07T10:24:59.667Z,99.90
2019-06-07T10:27:31.673Z,99.90
2019-06-07T10:30:04.063Z,99.90
2019-06-07T10:32:35.608Z,99.90
2019-06-07T10:35:07.741Z,99.90
2019-06-07T10:37:39.938Z,99.90
2019-06-07T10:40:11.702Z,99.90
2019-06-07T10:42:42.924Z,99.90
2019-06-07T10:45:16.974Z,99.90
2019-06-07T10:47:48.503Z,99.90
2019-06-07T10:50:21.534Z,99.90
2019-06-07T10:52:53.061Z,99.90
2019-06-07T10:55:24.613Z,99.90
2019-06-07T10:57:55.739Z,99.90
2019-06-07T11:00:28.111Z,99.90
2019-06-07T11:02:59.252Z,99.90
2019-06-07T11:05:30.304Z,99.90
2019-06-07T11:08:01.240Z,99.90
2019-06-07T11:10:32.955Z,99.90
2019-06-07T11:13:04.137Z,99.90
2019-06-07T11:15:35.706Z,99.90
2019-06-07T11:18:08.436Z,99.90
2019-06-07T11:20:39.810Z,99.90
2019-06-07T11:23:12.304Z,99.90
2019-06-07T11:25:43.497Z,99.90
2019-06-07T11:28:14.907Z,99.90
2019-06-07T11:30:46.416Z,99.90
2019-06-07T11:33:18.882Z,99.90
2019-06-07T11:35:49.889Z,99.90
2019-06-07T11:38:21.331Z,99.90
2019-06-07T11:40:52.250Z,99.90
2019-06-07T11:43:23.003Z,99.90
2019-06-07T11:45:55.618Z,99.90
2019-06-07T11:48:26.115Z,99.90
2019-06-07T11:50:57.472Z,99.90
2019-06-07T11:53:29.091Z,99.90
2019-06-07T11:56:00.301Z,99.90
2019-06-07T11:58:31.563Z,99.90
2019-06-07T12:01:03.141Z,99.90
2019-06-07T12:03:34.379Z,99.90
2019-06-07T12:06:05.686Z,99.90
2019-06-07T12:08:36.942Z,99.90
2019-06-07T12:11:08.160Z,99.90
2019-06-07T12:13:39.984Z,99.90
2019-06-07T12:16:11.361Z,99.90
2019-06-07T12:18:41.935Z,99.90
2019-06-07T12:21:13.730Z,99.90
2019-06-07T12:23:45.315Z,99.90
2019-06-07T12:26:16.823Z,99.90
2019-06-07T12:28:47.719Z,99.90
2019-06-07T12:31:19.254Z,99.90
2019-06-07T12:33:50.647Z,99.90
2019-06-07T12:36:22.780Z,99.90
2019-06-07T12:38:56.746Z,99.90
2019-06-07T12:41:28.633Z,99.90
2019-06-07T12:44:00.065Z,99.90
2019-06-07T12:46:31.695Z,99.90
2019-06-07T12:49:02.655Z,99.90
2019-06-07T12:51:33.895Z,99.80
2019-06-07T12:54:05.254Z,99.90
2019-06-07T12:56:36.151Z,99.90
2019-06-07T12:59:07.327Z,99.90
2019-06-07T13:01:38.593Z,99.90
2019-06-07T13:04:10.247Z,98.40
2019-06-07T13:06:43.111Z,99.40
2019-06-07T13:09:15.678Z,99.90
2019-06-07T13:11:47.939Z,99.90
2019-06-07T13:14:20.435Z,99.80
2019-06-07T13:16:52.000Z,99.90
2019-06-07T13:19:22.582Z,98.80
2019-06-07T13:21:53.925Z,99.90
2019-06-07T13:24:25.364Z,98.30
2019-06-07T13:26:58.710Z,99.90
2019-06-07T13:29:32.337Z,98.90
2019-06-07T13:32:02.836Z,98.20
2019-06-07T13:34:33.748Z,98.40
2019-06-07T13:37:04.944Z,99.10
2019-06-07T13:39:36.442Z,99.40
2019-06-07T13:42:07.328Z,99.40
2019-06-07T13:44:39.248Z,99.90
2019-06-07T13:47:10.110Z,99.90
2019-06-07T13:49:42.068Z,99.40
2019-06-07T13:52:13.749Z,99.90
2019-06-07T13:54:45.027Z,97.90
2019-06-07T13:57:17.816Z,96.80
2019-06-07T13:59:48.966Z,97.90
2019-06-07T14:02:20.952Z,98.30
2019-06-07T14:08:25.215Z,99.40
2019-06-07T14:10:56.795Z,98.60
2019-06-07T14:13:30.374Z,97.70
2019-06-07T14:16:01.567Z,97.10
2019-06-07T14:18:33.426Z,95.90
2019-06-07T14:21:05.279Z,96.10
2019-06-07T14:23:48.466Z,97.20
2019-06-07T14:26:09.788Z,96.20
2019-06-07T14:28:41.513Z,97.40
2019-06-07T14:31:12.742Z,97.30
2019-06-07T14:33:45.475Z,96.40
2019-06-07T14:36:17.111Z,96.90
2019-06-07T14:38:48.029Z,97.90
2019-06-07T14:41:19.908Z,96.10
2019-06-07T14:43:52.963Z,97.20
2019-06-07T14:46:24.020Z,95.80
2019-06-07T14:48:56.020Z,95.20
2019-06-07T14:51:28.321Z,96.10
2019-06-07T14:53:59.682Z,95.20
2019-06-07T14:56:31.329Z,95.10
2019-06-07T14:59:02.647Z,94.80
2019-06-07T15:01:35.531Z,94.60
2019-06-07T15:04:07.382Z,94.80
2019-06-07T15:06:39.014Z,94.60
2019-06-07T15:09:10.558Z,94.60
2019-06-07T15:11:42.213Z,95.00
2019-06-07T15:14:16.773Z,96.10
2019-06-07T15:16:46.143Z,96.10
2019-06-07T15:19:17.508Z,97.20
2019-06-07T15:21:48.663Z,95.80
2019-06-07T15:24:21.241Z,95.70
2019-06-07T15:26:52.712Z,95.20
2019-06-07T15:29:25.409Z,95.90
2019-06-07T15:32:00.949Z,95.80
2019-06-07T15:34:36.369Z,94.90
2019-06-07T15:37:13.360Z,95.20
2019-06-07T15:39:44.588Z,94.30
2019-06-07T15:42:21.485Z,96.00
2019-06-07T15:44:55.890Z,95.20
2019-06-07T15:47:25.662Z,94.60
2019-06-07T15:49:57.954Z,94.10
2019-06-07T15:52:29.646Z,93.60
2019-06-07T15:55:00.972Z,93.80
2019-06-07T15:57:33.386Z,94.30
2019-06-07T16:00:07.455Z,93.20
2019-06-07T16:02:39.748Z,93.10
2019-06-07T16:05:11.149Z,93.80
2019-06-07T16:07:50.248Z,93.60
2019-06-07T16:10:23.350Z,92.30
2019-06-07T16:13:00.523Z,93.80
2019-06-07T16:15:27.213Z,93.10
2019-06-07T16:17:59.830Z,93.40
2019-06-07T16:20:31.151Z,93.50
2019-06-07T16:23:02.466Z,93.60
2019-06-07T16:25:33.979Z,94.90
2019-06-07T16:28:05.973Z,94.70
2019-06-07T16:30:38.411Z,93.20
2019-06-07T16:33:10.589Z,93.50
2019-06-07T16:35:43.117Z,93.80
2019-06-07T16:38:14.104Z,94.80
2019-06-07T16:40:45.249Z,95.80
2019-06-07T16:43:25.062Z,96.00
2019-06-07T16:45:56.255Z,96.10
2019-06-07T16:48:28.170Z,96.60
2019-06-07T16:50:59.687Z,96.70
2019-06-07T16:53:32.221Z,95.80
2019-06-07T16:56:03.671Z,96.50
2019-06-07T16:58:34.971Z,96.70
2019-06-07T17:01:06.614Z,98.70
2019-06-07T17:03:39.339Z,99.40
2019-06-07T17:06:10.298Z,99.90
2019-06-07T17:08:42.166Z,99.90
2019-06-07T17:11:14.862Z,99.90
2019-06-07T17:13:46.447Z,99.90
2019-06-07T17:16:18.014Z,99.90
2019-06-07T17:18:49.323Z,99.90
2019-06-07T17:21:21.119Z,99.90
2019-06-07T17:23:53.385Z,99.90
2019-06-07T17:26:24.588Z,99.90
2019-06-07T17:28:56.976Z,99.90
2019-06-07T17:31:28.544Z,99.90
2019-06-07T17:34:00.428Z,99.90
2019-06-07T17:36:31.778Z,99.90
2019-06-07T17:39:04.283Z,99.90
2019-06-07T17:41:50.508Z,99.90
2019-06-07T17:44:08.512Z,99.90
2019-06-07T17:46:39.824Z,99.90
2019-06-07T17:49:11.317Z,99.90
2019-06-07T17:51:44.150Z,99.90
2019-06-07T17:54:16.036Z,99.90
2019-06-07T17:56:48.286Z,99.90
2019-06-07T17:59:19.103Z,99.90
2019-06-07T18:02:10.241Z,99.90
2019-06-07T18:04:24.403Z,99.90
2019-06-07T18:06:57.660Z,99.90
2019-06-07T18:09:31.378Z,99.90
2019-06-07T18:12:03.015Z,99.90
2019-06-07T18:14:34.391Z,99.90
2019-06-07T18:17:05.401Z,99.90
2019-06-07T18:19:35.920Z,99.90
2019-06-07T18:22:06.434Z,99.90
2019-06-07T18:24:37.933Z,99.90
2019-06-07T18:27:08.851Z,99.90
2019-06-07T18:29:40.312Z,99.90
2019-06-07T18:32:13.596Z,99.90
2019-06-07T18:34:44.630Z,99.90
2019-06-07T18:37:16.267Z,99.90
2019-06-07T18:39:53.167Z,99.90
2019-06-07T18:42:25.459Z,99.90
2019-06-07T18:44:56.812Z,99.90
2019-06-07T18:47:27.619Z,99.90
2019-06-07T18:49:58.549Z,99.90
2019-06-07T18:52:33.378Z,99.90
2019-06-07T18:55:07.730Z,99.90
2019-06-07T18:57:39.148Z,99.90
2019-06-07T19:00:10.942Z,99.90
2019-06-07T19:02:42.094Z,99.90
2019-06-07T19:05:14.139Z,99.90
2019-06-07T19:07:45.915Z,99.90
2019-06-07T19:10:18.142Z,99.90
2019-06-07T19:12:50.837Z,99.90
2019-06-07T19:15:22.379Z,99.90
2019-06-07T19:17:54.031Z,99.90
2019-06-07T19:20:25.962Z,99.90
2019-06-07T19:22:58.330Z,99.90
2019-06-07T19:25:29.859Z,99.90
2019-06-07T19:28:03.278Z,99.90
2019-06-07T19:30:34.706Z,99.90
2019-06-07T19:33:06.154Z,99.90
2019-06-07T19:35:37.282Z,99.90
2019-06-07T19:38:08.961Z,99.90
2019-06-07T19:40:40.148Z,99.90
2019-06-07T19:43:16.430Z,99.90
2019-06-07T19:45:48.167Z,99.90
2019-06-07T19:48:19.324Z,99.90
2019-06-07T19:50:50.107Z,99.90
2019-06-07T19:53:21.648Z,99.90
2019-06-07T19:55:53.105Z,99.90
2019-06-07T19:58:24.538Z,99.90
2019-06-07T20:00:56.064Z,99.90
2019-06-07T20:03:27.863Z,99.90
2019-06-07T20:06:02.437Z,99.90
2019-06-07T20:08:41.359Z,99.90
2019-06-07T20:11:16.547Z,99.90
2019-06-07T20:13:48.325Z,99.90
2019-06-07T20:16:26.270Z,99.90
2019-06-07T20:18:58.735Z,99.90
2019-06-07T20:21:29.964Z,99.90
2019-06-07T20:24:22.797Z,99.90
2019-06-07T20:26:34.695Z,99.90
2019-06-07T20:29:05.763Z,99.90
2019-06-07T20:31:37.815Z,99.90
2019-06-07T20:34:09.403Z,99.90
2019-06-07T20:36:41.786Z,99.90
2019-06-07T20:39:13.995Z,99.90
2019-06-07T20:41:45.489Z,99.90
2019-06-07T20:44:16.829Z,99.90
2019-06-07T20:46:48.309Z,99.90
2019-06-07T20:49:19.411Z,99.90
2019-06-07T20:51:50.283Z,99.90
2019-06-07T20:54:22.176Z,99.90
2019-06-07T20:56:52.956Z,99.90
2019-06-07T20:59:24.928Z,99.90
2019-06-07T21:01:56.255Z,99.90
2019-06-07T21:04:27.737Z,99.90
2019-06-07T21:06:59.463Z,99.90
2019-06-07T21:09:30.627Z,99.90
2019-06-07T21:12:02.122Z,99.90
2019-06-07T21:14:33.818Z,99.90
2019-06-07T21:17:06.227Z,99.90
2019-06-07T21:19:37.292Z,99.90
2019-06-07T21:22:08.908Z,99.90
2019-06-07T21:24:39.863Z,99.90
2019-06-07T21:27:11.461Z,99.90
2019-06-07T21:29:43.140Z,99.90
2019-06-07T21:32:14.889Z,99.90
2019-06-07T21:34:46.280Z,99.90
2019-06-07T21:37:17.173Z,99.90
2019-06-07T21:39:49.983Z,99.90
2019-06-07T21:42:20.632Z,99.90
2019-06-07T21:44:52.415Z,99.90
2019-06-07T21:47:23.882Z,99.90
2019-06-07T21:49:55.592Z,99.90
2019-06-07T21:52:26.362Z,99.90
2019-06-07T21:54:58.039Z,99.90
2019-06-07T21:57:29.255Z,99.90
2019-06-07T22:00:00.646Z,99.90
2019-06-07T22:02:32.571Z,99.90
2019-06-07T22:05:03.543Z,99.90
2019-06-07T22:07:34.659Z,99.90
2019-06-07T22:10:07.888Z,99.90
2019-06-07T22:12:39.058Z,99.90
2019-06-07T22:15:29.113Z,99.90
2019-06-07T22:17:43.377Z,99.90
2019-06-07T22:20:17.030Z,99.90
2019-06-07T22:22:49.007Z,99.90
2019-06-07T22:25:20.208Z,99.90
2019-06-07T22:27:51.407Z,99.90
2019-06-07T22:30:32.411Z,99.90
2019-06-07T22:33:03.896Z,99.90
2019-06-07T22:35:35.262Z,99.90
2019-06-07T22:38:06.389Z,99.90
2019-06-07T22:40:38.114Z,99.90
2019-06-07T22:43:09.669Z,99.90
2019-06-07T22:45:40.576Z,99.90
2019-06-07T22:48:11.962Z,99.90
2019-06-07T22:50:43.450Z,99.90
2019-06-07T22:53:13.950Z,99.90
2019-06-07T22:55:47.905Z,99.90
2019-06-07T22:58:19.046Z,99.90
2019-06-07T23:00:53.447Z,99.90
2019-06-07T23:03:24.446Z,99.90
2019-06-07T23:05:55.725Z,99.90
2019-06-07T23:08:27.460Z,99.90
2019-06-07T23:10:58.971Z,99.90
2019-06-07T23:13:30.165Z,99.90
2019-06-07T23:16:11.505Z,99.90
2019-06-07T23:18:42.726Z,99.90
2019-06-07T23:21:14.234Z,99.90
2019-06-07T23:23:45.687Z,99.90
2019-06-07T23:26:18.303Z,99.90
2019-06-07T23:28:48.913Z,99.90
2019-06-07T23:31:20.847Z,99.90
2019-06-07T23:33:51.910Z,99.90
2019-06-07T23:36:22.822Z,99.90
2019-06-07T23:38:53.963Z,99.90
2019-06-07T23:41:25.238Z,99.90
2019-06-07T23:43:57.246Z,99.90
2019-06-07T23:46:30.624Z,99.90
2019-06-07T23:49:01.932Z,99.90
2019-06-07T23:51:33.639Z,99.90
2019-06-07T23:54:05.132Z,99.90
2019-06-07T23:56:36.840Z,99.90
2019-06-07T23:59:07.735Z,99.90
